createdAt,value
2023-10-24T00:03:55.355Z,16.70
2023-10-24T00:08:57.912Z,16.40
2023-10-24T00:14:00.316Z,17.60
2023-10-24T00:19:03.002Z,18.00
2023-10-24T00:24:05.914Z,17.60
2023-10-24T00:29:08.463Z,16.30
2023-10-24T00:34:13.785Z,15.90
2023-10-24T00:39:16.632Z,16.40
2023-10-24T00:44:19.055Z,13.20
2023-10-24T00:49:22.291Z,13.70
2023-10-24T00:54:25.447Z,14.70
2023-10-24T00:59:28.798Z,13.50
2023-10-24T01:04:31.599Z,13.10
2023-10-24T01:09:34.828Z,13.20
2023-10-24T01:14:37.650Z,14.10
2023-10-24T01:19:40.416Z,13.90
2023-10-24T01:24:42.849Z,14.60
2023-10-24T01:29:46.088Z,13.70
2023-10-24T01:34:48.696Z,14.00
2023-10-24T01:39:51.821Z,15.00
2023-10-24T01:44:54.632Z,14.80
2023-10-24T01:49:56.992Z,12.10
2023-10-24T01:55:00.312Z,12.10
2023-10-24T02:00:04.693Z,27.50
2023-10-24T02:05:07.650Z,19.80
2023-10-24T02:10:10.717Z,20.10
2023-10-24T02:15:13.642Z,16.20
2023-10-24T02:20:16.510Z,13.90
2023-10-24T02:25:19.773Z,14.40
2023-10-24T02:30:23.202Z,13.00
2023-10-24T02:35:25.708Z,13.00
2023-10-24T02:40:28.245Z,12.80
2023-10-24T02:45:31.198Z,17.70
2023-10-24T02:50:33.813Z,14.20
2023-10-24T02:55:37.098Z,13.00
2023-10-24T03:00:40.843Z,13.30
2023-10-24T03:05:43.379Z,14.20
2023-10-24T03:10:46.814Z,15.40
2023-10-24T03:15:49.291Z,12.60
2023-10-24T03:20:51.997Z,13.30
2023-10-24T03:25:55.135Z,14.30
2023-10-24T03:31:09.193Z,13.20
2023-10-24T03:36:16.401Z,13.90
2023-10-24T03:41:19.046Z,14.50
2023-10-24T03:46:21.809Z,14.70
2023-10-24T03:51:24.576Z,16.20
2023-10-24T03:56:28.239Z,14.40
2023-10-24T04:01:31.638Z,12.80
2023-10-24T04:06:37.694Z,17.20
2023-10-24T04:11:40.299Z,16.30
2023-10-24T04:16:42.854Z,20.70
2023-10-24T04:21:46.541Z,36.70
2023-10-24T04:26:49.591Z,40.20
2023-10-24T04:31:52.340Z,30.60
2023-10-24T04:36:57.242Z,26.40
2023-10-24T04:42:00.874Z,25.20
2023-10-24T04:47:03.531Z,21.90
2023-10-24T04:52:06.937Z,21.30
2023-10-24T04:57:09.480Z,25.80
2023-10-24T05:02:12.658Z,22.10
2023-10-24T05:07:15.382Z,21.80
2023-10-24T05:12:17.774Z,20.20
2023-10-24T05:17:21.150Z,19.90
2023-10-24T05:22:23.601Z,21.20
2023-10-24T05:27:27.666Z,20.40
2023-10-24T05:32:30.385Z,21.40
2023-10-24T05:37:33.095Z,21.70
2023-10-24T05:42:35.488Z,34.20
2023-10-24T05:47:37.938Z,32.40
2023-10-24T05:52:41.060Z,31.00
2023-10-24T05:57:44.192Z,24.70
2023-10-24T06:02:46.671Z,19.50
2023-10-24T06:07:49.717Z,20.70
2023-10-24T06:12:52.738Z,19.80
2023-10-24T06:17:56.810Z,31.10
2023-10-24T06:23:08.601Z,39.10
2023-10-24T06:28:12.546Z,35.40
2023-10-24T06:33:15.982Z,27.50
2023-10-24T06:38:18.921Z,23.90
2023-10-24T06:43:22.196Z,30.10
2023-10-24T06:48:24.768Z,15.20
2023-10-24T06:53:27.342Z,30.20
2023-10-24T06:58:30.541Z,32.00
2023-10-24T07:03:33.440Z,28.50
2023-10-24T07:08:36.004Z,27.80
2023-10-24T07:13:39.159Z,30.30
2023-10-24T07:18:42.190Z,27.60
2023-10-24T07:23:45.048Z,25.70
2023-10-24T07:28:48.255Z,21.70
2023-10-24T07:33:50.878Z,18.00
2023-10-24T07:38:54.174Z,19.90
2023-10-24T07:43:57.398Z,20.70
2023-10-24T07:49:00.200Z,21.40
2023-10-24T07:54:03.385Z,22.70
2023-10-24T07:59:05.807Z,22.10
2023-10-24T08:04:08.378Z,20.90
2023-10-24T08:09:10.924Z,30.50
2023-10-24T08:14:14.546Z,31.40
2023-10-24T08:19:17.055Z,27.50
2023-10-24T08:24:20.014Z,22.80
2023-10-24T08:29:23.281Z,26.40
2023-10-24T08:34:26.153Z,26.10
2023-10-24T08:39:29.224Z,26.30
2023-10-24T08:44:33.763Z,27.60
2023-10-24T08:49:40.499Z,24.80
2023-10-24T08:54:45.945Z,28.20
2023-10-24T08:59:48.855Z,27.40
2023-10-24T09:04:52.589Z,21.30
2023-10-24T09:09:55.098Z,18.80
2023-10-24T09:14:59.897Z,20.20
2023-10-24T09:25:10.278Z,14.00
2023-10-24T09:30:14.078Z,17.00
2023-10-24T09:35:16.863Z,17.80
2023-10-24T09:40:20.226Z,17.60
2023-10-24T09:45:23.011Z,16.40
2023-10-24T09:50:26.715Z,19.40
2023-10-24T09:55:29.798Z,16.70
2023-10-24T10:00:35.512Z,16.10
2023-10-24T10:05:39.899Z,17.40
2023-10-24T10:10:46.779Z,18.10
2023-10-24T10:16:11.627Z,17.80
2023-10-24T10:21:38.209Z,14.30
2023-10-24T10:27:05.228Z,14.70
2023-10-24T10:32:39.594Z,15.50
2023-10-24T10:38:07.023Z,14.70
2023-10-24T10:43:29.444Z,14.60
2023-10-24T10:48:32.851Z,14.10
2023-10-24T10:53:46.383Z,16.90
2023-10-24T10:59:08.027Z,15.30
2023-10-24T11:04:21.354Z,20.90
2023-10-24T11:09:35.847Z,17.80
2023-10-24T11:14:38.500Z,17.10
2023-10-24T11:19:41.669Z,19.00
2023-10-24T11:24:44.316Z,17.60
2023-10-24T11:29:46.971Z,16.60
2023-10-24T11:34:50.118Z,14.30
2023-10-24T11:39:53.030Z,12.60
2023-10-24T11:44:56.179Z,12.20
2023-10-24T11:50:01.580Z,10.40
2023-10-24T11:55:05.642Z,11.90
2023-10-24T12:00:17.452Z,11.80
2023-10-24T12:05:20.768Z,11.40
2023-10-24T12:10:23.703Z,10.20
2023-10-24T12:15:27.837Z,12.10
2023-10-24T12:20:37.600Z,12.30
2023-10-24T12:25:40.158Z,10.60
2023-10-24T12:30:44.134Z,8.80
2023-10-24T12:35:48.878Z,9.10
2023-10-24T12:40:51.386Z,8.00
2023-10-24T12:45:54.617Z,8.40
2023-10-24T12:50:57.886Z,8.90
2023-10-24T12:56:03.116Z,10.60
2023-10-24T13:01:05.660Z,8.00
2023-10-24T13:06:08.955Z,9.50
2023-10-24T13:11:11.471Z,8.70
2023-10-24T13:16:14.561Z,12.30
2023-10-24T13:21:16.980Z,9.70
2023-10-24T13:26:19.463Z,11.30
2023-10-24T13:31:24.694Z,11.30
2023-10-24T13:36:28.519Z,12.80
2023-10-24T13:41:32.605Z,14.50
2023-10-24T13:51:39.239Z,15.20
2023-10-24T13:56:41.807Z,15.30
2023-10-24T14:01:44.266Z,15.10
2023-10-24T14:06:46.668Z,15.30
2023-10-24T14:11:49.575Z,15.80
2023-10-24T14:16:52.184Z,17.00
2023-10-24T14:21:55.971Z,17.60
2023-10-24T14:27:01.209Z,18.90
2023-10-24T14:32:04.116Z,19.10
2023-10-24T14:37:07.279Z,20.70
2023-10-24T14:42:09.747Z,19.40
2023-10-24T14:47:12.887Z,20.80
2023-10-24T14:52:17.176Z,20.40
2023-10-24T14:57:19.800Z,19.90
2023-10-24T15:02:22.132Z,20.70
2023-10-24T15:07:25.456Z,19.60
2023-10-24T15:12:27.847Z,22.30
2023-10-24T15:17:30.529Z,18.80
2023-10-24T15:22:36.182Z,17.10
2023-10-24T15:27:38.667Z,18.90
2023-10-24T15:32:41.091Z,18.20
2023-10-24T15:37:43.656Z,18.10
2023-10-24T15:42:46.271Z,20.60
2023-10-24T15:47:49.936Z,20.20
2023-10-24T15:52:52.513Z,18.30
2023-10-24T15:58:05.685Z,18.10
2023-10-24T16:03:09.197Z,16.90
2023-10-24T16:08:12.594Z,16.60
2023-10-24T16:13:15.131Z,17.20
2023-10-24T16:18:19.433Z,17.40
2023-10-24T16:23:22.692Z,17.20
2023-10-24T16:28:29.346Z,16.10
2023-10-24T16:33:32.988Z,17.20
2023-10-24T16:38:35.625Z,17.70
2023-10-24T16:43:38.186Z,18.30
2023-10-24T16:48:40.673Z,17.10
2023-10-24T16:53:45.445Z,18.40
2023-10-24T17:03:50.677Z,20.70
2023-10-24T17:08:53.431Z,14.00
2023-10-24T17:13:56.590Z,18.80
2023-10-24T17:19:00.235Z,20.10
2023-10-24T17:24:03.076Z,18.60
2023-10-24T17:29:05.897Z,17.60
2023-10-24T17:34:10.195Z,17.50
2023-10-24T17:44:16.094Z,15.60
2023-10-24T17:49:18.559Z,16.60
2023-10-24T17:54:21.734Z,16.10
2023-10-24T17:59:25.836Z,14.10
2023-10-24T18:09:32.167Z,15.80
2023-10-24T18:14:35.468Z,17.00
2023-10-24T18:19:39.471Z,16.80
2023-10-24T18:24:42.147Z,11.30
2023-10-24T18:29:47.652Z,14.10
2023-10-24T18:34:50.279Z,15.00
2023-10-24T18:39:53.575Z,15.00
2023-10-24T18:45:00.205Z,13.30
2023-10-24T18:50:02.715Z,14.00
2023-10-24T18:55:06.412Z,11.60
2023-10-24T19:00:09.675Z,11.70
2023-10-24T19:05:12.332Z,13.60
2023-10-24T19:10:16.579Z,14.10
2023-10-24T19:15:20.384Z,13.80
2023-10-24T19:20:24.718Z,13.80
2023-10-24T19:25:27.742Z,13.40
2023-10-24T19:30:34.665Z,15.40
2023-10-24T19:35:39.457Z,13.20
2023-10-24T19:40:42.986Z,12.90
2023-10-24T19:45:49.194Z,12.70
2023-10-24T19:50:52.702Z,9.70
2023-10-24T19:55:57.076Z,11.10
2023-10-24T20:01:05.269Z,11.00
2023-10-24T20:06:10.169Z,12.10
2023-10-24T20:12:33.960Z,12.20
2023-10-24T20:16:37.533Z,10.90
2023-10-24T20:21:41.022Z,10.90
2023-10-24T20:26:44.204Z,10.60
2023-10-24T20:31:47.066Z,11.10
2023-10-24T20:36:50.035Z,11.50
2023-10-24T20:41:52.464Z,11.40
2023-10-24T20:46:55.626Z,10.90
2023-10-24T20:51:58.095Z,10.50
2023-10-24T20:57:01.411Z,10.80
2023-10-24T21:02:07.996Z,10.50
2023-10-24T21:07:10.890Z,10.30
2023-10-24T21:12:14.615Z,11.50
2023-10-24T21:17:17.106Z,10.10
2023-10-24T21:22:19.667Z,10.20
2023-10-24T21:27:24.217Z,9.30
2023-10-24T21:32:26.758Z,9.40
2023-10-24T21:37:29.886Z,8.70
2023-10-24T21:42:33.085Z,9.90
2023-10-24T21:47:36.652Z,8.40
2023-10-24T21:57:41.520Z,7.70
2023-10-24T22:02:44.284Z,8.80
2023-10-24T22:07:46.965Z,10.00
2023-10-24T22:12:51.333Z,7.00
2023-10-24T22:17:54.978Z,9.20
2023-10-24T22:22:57.706Z,8.90
2023-10-24T22:28:05.715Z,8.40
2023-10-24T22:33:08.915Z,8.70
2023-10-24T22:38:11.748Z,8.30
2023-10-24T22:43:14.416Z,8.20
2023-10-24T22:48:17.911Z,8.50
2023-10-24T22:53:20.398Z,7.70
2023-10-24T22:58:23.048Z,8.30
2023-10-24T23:03:26.448Z,8.80
2023-10-24T23:08:29.083Z,8.60
2023-10-24T23:13:32.959Z,8.70
2023-10-24T23:18:41.839Z,8.10
2023-10-24T23:23:44.597Z,8.30
2023-10-24T23:28:47.198Z,8.00
2023-10-24T23:33:50.672Z,8.50
2023-10-24T23:38:53.238Z,8.00
2023-10-24T23:43:56.375Z,8.10
2023-10-24T23:48:59.359Z,8.40
2023-10-24T23:54:02.040Z,7.20
2023-10-24T23:59:04.850Z,7.90
